Green River, WY

10:00 AM MDT on October 22, 2014 (GMT -0600)
Fairway Estates | Change Station
CLOSE
Current Station
Personal Weather Station
Location: Rock Springs, WY
Elevation: 6430 ft
Nearby Weather Stations

Elev 6430 ft 41.64 °N, 109.25 °W | Updated 3 minutes ago

Partly Cloudy
Partly Cloudy
36.0 °F
Feels Like 36 °F
N
2.0
Wind Variable Wind from SSE
Gusts 2.0 mph

Today
High -- | Low -- °F
--% Chance of Precip.
Yesterday
High -- | Low -- °F
Precip. -- in
7:37 AM 6:26 PM
Waning Crescent, 2% visible
Pressure 30.19 in
Visibility 10.0 miles
Clouds Clear
Windchill 36 °F
Dew Point 28 °F
Humidity 72%
Rainfall 0.00 in
Snow Depth Not available.
UV 2 out of 12
Pollen 1.70 out of 12
Air Quality Not available.
Flu Activity Sporadic
METAR KRKS 221554Z AUTO 27004KT 10SM CLR 02/M02 A3023 RMK AO2 SLP224 T00171022

More Conditions Fewer Conditions

Pressure 30.19 in
Visibility 10.0 miles
Clouds Clear
Windchill 36 °F
Dew Point 28 °F
Humidity 72%
Rainfall 0.00 in
Snow Depth Not available.
UV 2 out of 12
Pollen 1.70 out of 12
Air Quality Not available.
Flu Activity Sporadic
METAR KRKS 221554Z AUTO 27004KT 10SM CLR 02/M02 A3023 RMK AO2 SLP224 T00171022

More Conditions Fewer Conditions

10-Day Weather Forecast

Almanac

Astronomy

Oct. 22, 2014 Rise Set
Actual Time 7:37 AM MDT 6:26 PM MDT
Civil Twilight 7:09 AM MDT 6:54 PM MDT
Nautical Twilight 6:37 AM MDT 7:26 PM MDT
Astronomical Twilight 6:05 AM MDT 7:58 PM MDT
Moon 6:21 AM MDT 5:55 PM MDT
Length of Visible Light 11h 44m
Length of Day
10h 48m
Tomorrow will be 2m 35s shorter.
Waning Crescent, 2% of the Moon is Illuminated
Today
Waning Crescent
Oct 23
New
Oct 30
First Quarter
Nov 6
Full
Nov 14
Last Quarter

Today's Extremes

State Highs State Lows

Community

WunderPhotos

Upload Photos

1,763,956 photos uploaded!

Nearby

Snow Depth

Station Depth Elevation
Hams Fork 0 in 7840 ft
Big Sandy Opening 1 in 9080 ft
South Pass 1 in 9040 ft
Kelley R.S. 1 in 8180 ft
Snider Basin 0 in 8060 ft

Earthquake Activity

City Distance Mag. Time & Date
No recent earthquake activity has been reported nearby.
Minimum magnitude displayed is 2.5.

Coastal Water Temperatures

Place Temperature
No Stations Reporting

Nearby Weather Stations